Time;durP1;ratioP1;P1;durP2;ratioP2;P2;SDS_P1;SDS_P2;PMS_P1;PMS_P2;Temp;Humidity;BMP_temperature;BMP_pressure;BME280_temperature;BME280_humidity;BME280_pressure;Samples;Min_cycle;Max_cycle;Signal;HPM_P1;HPM_P2
2021/09/04 00:00:28;;;;;;;7.43;5.47;;;;;;;;;;5085130;28;20202;-46
2021/09/04 00:02:54;;;;;;;6.65;5.95;;;;;;;;;;5074222;28;20257;-46
2021/09/04 00:05:20;;;;;;;8.25;5.70;;;;;;;;;;5075443;28;20745;-46
2021/09/04 00:07:46;;;;;;;6.72;5.78;;;;;;;;;;5093378;28;20223;-46
2021/09/04 00:10:12;;;;;;;6.70;5.55;;;;;;;;;;5092843;28;20174;-46
2021/09/04 00:12:38;;;;;;;8.00;5.68;;;;;;;;;;5094453;28;20212;-46
2021/09/04 00:15:05;;;;;;;8.70;5.85;;;;;;;;;;5097229;28;20186;-46
2021/09/04 00:17:31;;;;;;;5.95;5.32;;;;;;;;;;5097317;28;20214;-46
2021/09/04 00:19:57;;;;;;;8.57;6.13;;;;;;;;;;5097235;28;20500;-46
2021/09/04 00:22:23;;;;;;;6.07;5.30;;;;;;;;;;5097835;28;20260;-46
2021/09/04 00:24:48;;;;;;;5.15;4.65;;;;;;;;;;5097604;28;20194;-46
2021/09/04 00:27:14;;;;;;;6.07;5.45;;;;;;;;;;5078594;28;20186;-46
2021/09/04 00:29:41;;;;;;;11.27;5.90;;;;;;;;;;5080160;28;20183;-46
2021/09/04 00:32:07;;;;;;;7.78;5.88;;;;;;;;;;5097582;28;20221;-46
2021/09/04 00:34:33;;;;;;;8.23;5.15;;;;;;;;;;5097711;28;20166;-46
2021/09/04 00:36:59;;;;;;;6.35;5.25;;;;;;;;;;5096950;28;20189;-46
2021/09/04 00:39:25;;;;;;;5.70;5.10;;;;;;;;;;5105675;28;20184;-46
2021/09/04 00:41:51;;;;;;;6.72;5.50;;;;;;;;;;5094244;28;20198;-46
2021/09/04 00:44:18;;;;;;;6.10;5.50;;;;;;;;;;5097731;28;20227;-46
2021/09/04 00:46:44;;;;;;;6.03;5.45;;;;;;;;;;5097418;28;20186;-45
2021/09/04 00:49:11;;;;;;;5.90;5.13;;;;;;;;;;5096991;28;20176;-45
2021/09/04 00:51:37;;;;;;;6.35;5.57;;;;;;;;;;5077891;28;20214;-45
2021/09/04 00:54:03;;;;;;;7.22;5.30;;;;;;;;;;5077436;28;20170;-45
2021/09/04 00:56:29;;;;;;;5.82;5.20;;;;;;;;;;5097046;28;20185;-45
2021/09/04 00:58:55;;;;;;;6.10;5.50;;;;;;;;;;5096762;28;20174;-45
2021/09/04 01:01:21;;;;;;;7.05;5.25;;;;;;;;;;5081251;28;20248;-45
2021/09/04 01:03:47;;;;;;;6.93;5.97;;;;;;;;;;5077081;28;20179;-45
2021/09/04 01:06:14;;;;;;;6.35;5.40;;;;;;;;;;5076982;28;20221;-45
2021/09/04 01:08:41;;;;;;;6.97;5.57;;;;;;;;;;5079891;28;20344;-45
2021/09/04 01:11:08;;;;;;;6.78;5.43;;;;;;;;;;5078483;28;20198;-45
2021/09/04 01:13:33;;;;;;;6.93;5.57;;;;;;;;;;5081999;28;20277;-45
2021/09/04 01:15:59;;;;;;;6.10;5.50;;;;;;;;;;5096823;28;20572;-45
2021/09/04 01:18:25;;;;;;;5.25;4.75;;;;;;;;;;5096499;28;20170;-45
2021/09/04 01:20:51;;;;;;;7.53;5.43;;;;;;;;;;5090993;28;20218;-45
2021/09/04 01:23:17;;;;;;;8.00;5.32;;;;;;;;;;5085557;28;20177;-45
2021/09/04 01:25:47;;;;;;;5.65;5.05;;;;;;;;;;5091191;28;20178;-45
2021/09/04 01:28:13;;;;;;;6.03;4.95;;;;;;;;;;5095133;28;20189;-45
2021/09/04 01:30:39;;;;;;;6.07;5.47;;;;;;;;;;5090901;28;20206;-45
2021/09/04 01:33:04;;;;;;;5.75;5.15;;;;;;;;;;5076541;28;20191;-45
2021/09/04 01:35:30;;;;;;;6.10;4.88;;;;;;;;;;5079688;28;20234;-45
2021/09/04 01:37:56;;;;;;;6.65;5.30;;;;;;;;;;5095759;28;20185;-45
2021/09/04 01:40:22;;;;;;;5.75;5.15;;;;;;;;;;5110733;28;20211;-45
2021/09/04 01:42:49;;;;;;;6.10;5.18;;;;;;;;;;5096433;28;20307;-45
2021/09/04 01:45:15;;;;;;;5.35;4.85;;;;;;;;;;5095716;28;20571;-46
2021/09/04 01:47:41;;;;;;;6.25;5.03;;;;;;;;;;5095838;28;20170;-46
2021/09/04 01:50:13;;;;;;;5.55;4.70;;;;;;;;;;5091111;28;20244;-45
2021/09/04 01:52:40;;;;;;;6.07;5.28;;;;;;;;;;5076191;28;20617;-45
2021/09/04 01:55:07;;;;;;;7.30;5.30;;;;;;;;;;5087975;28;20253;-45
2021/09/04 01:57:33;;;;;;;5.63;4.78;;;;;;;;;;5095593;28;20170;-45
2021/09/04 01:59:59;;;;;;;6.82;5.18;;;;;;;;;;5095181;28;20182;-45
2021/09/04 02:02:25;;;;;;;6.85;5.10;;;;;;;;;;5095376;28;20219;-45
2021/09/04 02:04:51;;;;;;;5.78;4.50;;;;;;;;;;5095751;28;20224;-45
2021/09/04 02:07:18;;;;;;;6.28;5.00;;;;;;;;;;5077097;28;20217;-45
2021/09/04 02:09:43;;;;;;;5.55;5.00;;;;;;;;;;5092384;28;20185;-45
2021/09/04 02:12:09;;;;;;;5.15;4.65;;;;;;;;;;5078387;28;20210;-45
2021/09/04 02:14:35;;;;;;;5.55;4.90;;;;;;;;;;5089009;28;20229;-45
2021/09/04 02:17:01;;;;;;;6.22;4.70;;;;;;;;;;5095105;28;20189;-45
2021/09/04 02:19:27;;;;;;;4.97;4.47;;;;;;;;;;5095094;28;20192;-45
2021/09/04 02:21:53;;;;;;;5.78;4.88;;;;;;;;;;5095466;28;20170;-45
2021/09/04 02:24:19;;;;;;;5.72;5.22;;;;;;;;;;5077995;28;20190;-49
2021/09/04 02:26:45;;;;;;;8.23;5.50;;;;;;;;;;5081734;28;20289;-45
2021/09/04 02:29:11;;;;;;;7.00;4.97;;;;;;;;;;5081088;28;20190;-45
2021/09/04 02:31:37;;;;;;;6.03;5.45;;;;;;;;;;5094951;28;20194;-45
2021/09/04 02:34:03;;;;;;;5.95;5.35;;;;;;;;;;5095631;28;20544;-45
2021/09/04 02:36:29;;;;;;;6.88;5.40;;;;;;;;;;5094684;28;20169;-45
2021/09/04 02:38:55;;;;;;;6.13;5.13;;;;;;;;;;5093737;28;20277;-45
2021/09/04 02:41:22;;;;;;;8.57;5.28;;;;;;;;;;5093130;28;20612;-45
2021/09/04 02:43:48;;;;;;;5.22;4.72;;;;;;;;;;5075010;28;20182;-45
2021/09/04 02:46:14;;;;;;;6.70;4.95;;;;;;;;;;5079262;28;20260;-45
2021/09/04 02:48:40;;;;;;;5.40;4.90;;;;;;;;;;5082986;28;20175;-45
2021/09/04 02:51:05;;;;;;;6.47;5.15;;;;;;;;;;5094678;28;20241;-45
2021/09/04 02:53:31;;;;;;;5.32;4.63;;;;;;;;;;5094650;28;20191;-45
2021/09/04 02:55:57;;;;;;;5.78;4.88;;;;;;;;;;5075266;28;20557;-45
2021/09/04 02:58:23;;;;;;;6.43;4.72;;;;;;;;;;5074172;28;20159;-45
2021/09/04 03:00:49;;;;;;;5.25;4.75;;;;;;;;;;5087628;28;20809;-45
2021/09/04 03:03:15;;;;;;;6.07;5.10;;;;;;;;;;5091129;28;20310;-45
2021/09/04 03:05:41;;;;;;;6.10;4.57;;;;;;;;;;5085827;28;20577;-45
2021/09/04 03:08:07;;;;;;;5.88;4.65;;;;;;;;;;5075852;28;20446;-45
2021/09/04 03:10:33;;;;;;;5.03;4.53;;;;;;;;;;5077379;28;20190;-45
2021/09/04 03:12:59;;;;;;;5.30;4.80;;;;;;;;;;5074700;28;20172;-45
2021/09/04 03:15:25;;;;;;;6.13;4.93;;;;;;;;;;5094542;28;20427;-45
2021/09/04 03:17:51;;;;;;;5.25;4.75;;;;;;;;;;5093824;28;20192;-45
2021/09/04 03:20:17;;;;;;;4.88;4.45;;;;;;;;;;5094028;28;20432;-45
2021/09/04 03:22:43;;;;;;;5.57;4.63;;;;;;;;;;5094974;28;20226;-45
2021/09/04 03:25:09;;;;;;;5.45;4.80;;;;;;;;;;5094755;28;20180;-45
2021/09/04 03:27:35;;;;;;;5.57;4.72;;;;;;;;;;5093784;28;20185;-45
2021/09/04 03:30:01;;;;;;;5.60;4.40;;;;;;;;;;5094150;28;20232;-45
2021/09/04 03:32:27;;;;;;;5.85;5.25;;;;;;;;;;5094104;28;20308;-45
2021/09/04 03:34:55;;;;;;;5.53;4.55;;;;;;;;;;5094762;28;20177;-45
2021/09/04 03:37:21;;;;;;;6.47;4.88;;;;;;;;;;5093897;28;20170;-45
2021/09/04 03:39:47;;;;;;;4.95;4.45;;;;;;;;;;5103105;28;20250;-45
2021/09/04 03:42:14;;;;;;;6.70;4.95;;;;;;;;;;5095510;28;20580;-45
2021/09/04 03:44:40;;;;;;;5.20;4.70;;;;;;;;;;5094749;28;20595;-45
2021/09/04 03:47:06;;;;;;;6.75;4.78;;;;;;;;;;5088273;28;20178;-45
2021/09/04 03:49:32;;;;;;;5.20;4.70;;;;;;;;;;5089167;28;20182;-45
2021/09/04 03:51:58;;;;;;;6.50;4.53;;;;;;;;;;5079391;28;20206;-45
2021/09/04 03:54:24;;;;;;;5.05;4.53;;;;;;;;;;5079520;28;20170;-45
2021/09/04 03:56:53;;;;;;;4.72;4.32;;;;;;;;;;5092352;28;20173;-45
2021/09/04 03:59:19;;;;;;;5.20;4.68;;;;;;;;;;5097535;28;20196;-45
2021/09/04 04:01:45;;;;;;;5.72;4.90;;;;;;;;;;5084399;28;20202;-45
2021/09/04 04:04:11;;;;;;;5.28;4.78;;;;;;;;;;5088553;28;20182;-45
2021/09/04 04:06:36;;;;;;;4.68;4.25;;;;;;;;;;5078164;28;20542;-45
2021/09/04 04:09:03;;;;;;;5.85;4.45;;;;;;;;;;5080152;28;20188;-45
2021/09/04 04:11:28;;;;;;;5.43;4.68;;;;;;;;;;5098082;28;20228;-45
2021/09/04 04:13:54;;;;;;;5.00;4.45;;;;;;;;;;5097989;28;20561;-45
2021/09/04 04:16:20;;;;;;;6.18;4.65;;;;;;;;;;5088022;28;20262;-45
2021/09/04 04:18:46;;;;;;;5.43;4.68;;;;;;;;;;5077705;28;20187;-45
2021/09/04 04:21:12;;;;;;;5.00;4.47;;;;;;;;;;5088638;28;20179;-45
2021/09/04 04:23:38;;;;;;;5.93;4.50;;;;;;;;;;5077558;28;20553;-45
2021/09/04 04:26:04;;;;;;;4.85;4.35;;;;;;;;;;5094734;28;20190;-45
2021/09/04 04:28:30;;;;;;;5.72;4.13;;;;;;;;;;5096914;28;20189;-45
2021/09/04 04:30:56;;;;;;;5.10;4.60;;;;;;;;;;5095404;28;20205;-45
2021/09/04 04:33:22;;;;;;;5.15;4.65;;;;;;;;;;5098169;28;20173;-45
2021/09/04 04:35:48;;;;;;;4.82;4.20;;;;;;;;;;5091994;28;20456;-45
2021/09/04 04:38:14;;;;;;;5.30;4.72;;;;;;;;;;5089942;28;20186;-45
2021/09/04 04:40:40;;;;;;;5.82;4.68;;;;;;;;;;5109456;28;20206;-45
2021/09/04 04:43:06;;;;;;;6.32;4.70;;;;;;;;;;5096522;28;20186;-45
2021/09/04 04:45:32;;;;;;;6.30;4.38;;;;;;;;;;5092533;28;20182;-45
2021/09/04 04:47:58;;;;;;;4.75;4.05;;;;;;;;;;5075797;28;20206;-45
2021/09/04 04:50:24;;;;;;;6.75;4.25;;;;;;;;;;5087460;28;20180;-45
2021/09/04 04:52:50;;;;;;;5.75;4.05;;;;;;;;;;5095999;28;20442;-45
2021/09/04 04:55:16;;;;;;;5.13;4.22;;;;;;;;;;5095730;28;20540;-45
2021/09/04 04:57:42;;;;;;;6.53;4.63;;;;;;;;;;5095629;28;20189;-45
2021/09/04 05:00:08;;;;;;;4.60;3.95;;;;;;;;;;5084903;28;20183;-45
2021/09/04 05:02:34;;;;;;;5.50;4.32;;;;;;;;;;5077004;28;20289;-45
2021/09/04 05:05:00;;;;;;;5.50;3.90;;;;;;;;;;5090254;28;20268;-45
2021/09/04 05:07:26;;;;;;;5.75;4.70;;;;;;;;;;5078483;28;20181;-45
2021/09/04 05:09:52;;;;;;;5.25;3.97;;;;;;;;;;5083621;28;20224;-45
2021/09/04 05:12:18;;;;;;;4.47;4.07;;;;;;;;;;5095878;28;20213;-45
2021/09/04 05:14:44;;;;;;;5.45;4.68;;;;;;;;;;5095826;28;20177;-45
2021/09/04 05:17:10;;;;;;;4.90;4.18;;;;;;;;;;5078332;28;20606;-45
2021/09/04 05:19:36;;;;;;;4.78;4.28;;;;;;;;;;5093983;28;20182;-45
2021/09/04 05:22:02;;;;;;;4.43;4.03;;;;;;;;;;5079340;28;20202;-45
2021/09/04 05:24:28;;;;;;;4.97;4.13;;;;;;;;;;5080462;28;20280;-45
2021/09/04 05:26:54;;;;;;;4.35;3.95;;;;;;;;;;5095504;28;20268;-45
2021/09/04 05:29:20;;;;;;;5.03;3.90;;;;;;;;;;5092233;28;20585;-45
2021/09/04 05:31:46;;;;;;;4.25;3.70;;;;;;;;;;5075639;28;20209;-45
2021/09/04 05:34:12;;;;;;;5.43;4.00;;;;;;;;;;5086458;28;20181;-45
2021/09/04 05:36:38;;;;;;;4.38;3.67;;;;;;;;;;5082384;28;20190;-45
2021/09/04 05:39:04;;;;;;;4.70;4.20;;;;;;;;;;5093092;28;20182;-45
2021/09/04 05:41:30;;;;;;;4.95;4.35;;;;;;;;;;5070686;28;1082375;-45
2021/09/04 05:43:56;;;;;;;3.95;3.60;;;;;;;;;;5082569;28;20183;-45
2021/09/04 05:46:22;;;;;;;4.13;3.72;;;;;;;;;;5076151;28;20292;-45
2021/09/04 05:48:48;;;;;;;5.03;4.30;;;;;;;;;;5094519;28;20182;-45
2021/09/04 05:51:14;;;;;;;4.93;3.97;;;;;;;;;;5086127;28;20202;-45
2021/09/04 05:53:42;;;;;;;6.18;4.15;;;;;;;;;;5077274;28;20178;-45
2021/09/04 05:56:08;;;;;;;5.82;3.72;;;;;;;;;;5084387;28;20184;-45
2021/09/04 05:58:34;;;;;;;4.72;4.18;;;;;;;;;;5095777;28;20165;-45
2021/09/04 06:01:01;;;;;;;4.80;3.60;;;;;;;;;;5079798;28;20217;-45
2021/09/04 06:03:27;;;;;;;4.35;3.90;;;;;;;;;;5093925;28;20189;-45
2021/09/04 06:05:56;;;;;;;5.25;4.45;;;;;;;;;;5095071;28;20181;-46
2021/09/04 06:08:22;;;;;;;4.72;4.30;;;;;;;;;;5093090;28;20181;-45
2021/09/04 06:10:48;;;;;;;5.47;4.28;;;;;;;;;;5080962;28;20213;-45
2021/09/04 06:13:14;;;;;;;5.50;4.60;;;;;;;;;;5077671;28;20457;-45
2021/09/04 06:15:40;;;;;;;6.20;4.70;;;;;;;;;;5095552;28;20177;-45
2021/09/04 06:18:06;;;;;;;5.10;4.30;;;;;;;;;;5093336;28;20170;-45
2021/09/04 06:20:32;;;;;;;5.20;4.55;;;;;;;;;;5084828;28;20174;-45
2021/09/04 06:22:58;;;;;;;5.18;4.63;;;;;;;;;;5075664;28;20492;-45
2021/09/04 06:25:24;;;;;;;5.45;4.93;;;;;;;;;;5075820;28;20253;-45
2021/09/04 06:27:50;;;;;;;7.05;5.07;;;;;;;;;;5074814;28;20188;-45
2021/09/04 06:30:16;;;;;;;6.15;4.78;;;;;;;;;;5087216;28;20578;-45
2021/09/04 06:32:42;;;;;;;5.68;4.50;;;;;;;;;;5075148;28;20256;-45
2021/09/04 06:35:09;;;;;;;6.65;5.45;;;;;;;;;;5084602;28;20221;-45
2021/09/04 06:37:34;;;;;;;5.45;4.43;;;;;;;;;;5079647;28;20213;-45
2021/09/04 06:40:01;;;;;;;5.70;4.50;;;;;;;;;;5103293;28;20228;-46
2021/09/04 06:42:27;;;;;;;7.82;4.63;;;;;;;;;;5095710;28;20220;-45
2021/09/04 06:44:52;;;;;;;5.30;4.70;;;;;;;;;;5095256;28;20238;-45
2021/09/04 06:47:18;;;;;;;6.53;4.60;;;;;;;;;;5075851;28;20722;-45
2021/09/04 06:49:44;;;;;;;5.82;4.60;;;;;;;;;;5084939;28;20178;-45
2021/09/04 06:52:10;;;;;;;6.93;5.22;;;;;;;;;;5074913;28;20240;-45
2021/09/04 06:54:36;;;;;;;8.70;5.38;;;;;;;;;;5084417;28;20184;-45
2021/09/04 06:57:04;;;;;;;7.30;5.32;;;;;;;;;;5094129;28;20219;-45
2021/09/04 06:59:30;;;;;;;8.13;5.60;;;;;;;;;;5092685;28;20197;-45
2021/09/04 07:01:56;;;;;;;7.65;4.85;;;;;;;;;;5080159;28;20477;-45
2021/09/04 07:04:22;;;;;;;7.32;5.05;;;;;;;;;;5094752;28;20173;-45
2021/09/04 07:06:48;;;;;;;6.85;5.07;;;;;;;;;;5093717;28;20178;-45
2021/09/04 07:09:14;;;;;;;7.25;4.55;;;;;;;;;;5092059;28;20185;-45
2021/09/04 07:11:40;;;;;;;16.02;5.75;;;;;;;;;;5094838;28;20573;-45
2021/09/04 07:14:06;;;;;;;8.00;5.40;;;;;;;;;;5088025;28;20189;-45
2021/09/04 07:16:32;;;;;;;13.38;5.97;;;;;;;;;;5094303;28;20511;-45
2021/09/04 07:18:58;;;;;;;12.48;6.05;;;;;;;;;;5094087;28;20174;-45
2021/09/04 07:21:24;;;;;;;8.45;5.53;;;;;;;;;;5076787;28;20197;-45
2021/09/04 07:23:50;;;;;;;10.73;6.35;;;;;;;;;;5083503;28;20178;-45
2021/09/04 07:26:16;;;;;;;9.40;6.18;;;;;;;;;;5094378;28;20335;-45
2021/09/04 07:28:42;;;;;;;8.68;6.85;;;;;;;;;;5088081;28;20769;-45
2021/09/04 07:31:09;;;;;;;8.25;6.30;;;;;;;;;;5093931;28;20197;-45
2021/09/04 07:33:35;;;;;;;11.02;7.25;;;;;;;;;;5094815;28;20245;-45
2021/09/04 07:36:08;;;;;;;10.25;7.72;;;;;;;;;;5092655;28;20577;-45
2021/09/04 07:38:34;;;;;;;11.07;7.07;;;;;;;;;;5088952;28;20210;-45
2021/09/04 07:41:00;;;;;;;10.10;7.38;;;;;;;;;;5097968;28;20298;-45
2021/09/04 07:43:26;;;;;;;9.93;7.68;;;;;;;;;;5093100;28;20616;-46
2021/09/04 07:45:52;;;;;;;11.82;8.35;;;;;;;;;;5093396;28;20443;-45
2021/09/04 07:48:18;;;;;;;13.15;9.00;;;;;;;;;;5092916;28;20173;-45
2021/09/04 07:50:44;;;;;;;10.40;8.18;;;;;;;;;;5076167;28;20210;-45
2021/09/04 07:53:10;;;;;;;14.65;9.55;;;;;;;;;;5077286;28;20171;-45
2021/09/04 07:55:36;;;;;;;13.80;10.38;;;;;;;;;;5080960;28;20513;-45
2021/09/04 07:58:02;;;;;;;14.25;10.45;;;;;;;;;;5089674;28;20174;-45
2021/09/04 08:00:28;;;;;;;15.48;10.75;;;;;;;;;;5088223;28;20198;-45
2021/09/04 08:02:54;;;;;;;13.90;10.57;;;;;;;;;;5093798;28;20177;-45
2021/09/04 08:05:20;;;;;;;13.23;9.70;;;;;;;;;;5090748;28;20182;-45
2021/09/04 08:07:47;;;;;;;13.40;9.02;;;;;;;;;;5084120;28;20213;-46
2021/09/04 08:10:13;;;;;;;12.30;9.35;;;;;;;;;;5088269;28;20232;-45
2021/09/04 08:12:39;;;;;;;12.15;8.85;;;;;;;;;;5085047;28;20213;-46
2021/09/04 08:15:05;;;;;;;12.35;9.05;;;;;;;;;;5092567;28;20849;-46
2021/09/04 08:17:31;;;;;;;13.38;9.43;;;;;;;;;;5082899;28;20192;-45
2021/09/04 08:19:57;;;;;;;15.15;10.25;;;;;;;;;;5086370;28;20210;-45
2021/09/04 08:22:23;;;;;;;16.13;9.70;;;;;;;;;;5093133;28;20802;-45
2021/09/04 08:24:49;;;;;;;12.63;8.85;;;;;;;;;;5085928;28;20182;-45
2021/09/04 08:27:15;;;;;;;10.43;8.18;;;;;;;;;;5092883;28;20178;-45
2021/09/04 08:29:41;;;;;;;14.32;9.25;;;;;;;;;;5090862;28;20503;-45
2021/09/04 08:32:07;;;;;;;12.30;8.93;;;;;;;;;;5087427;28;20288;-45
2021/09/04 08:34:34;;;;;;;13.90;9.73;;;;;;;;;;5094792;28;20193;-45
2021/09/04 08:37:00;;;;;;;10.25;8.15;;;;;;;;;;5094721;28;20170;-45
2021/09/04 08:39:25;;;;;;;10.93;7.93;;;;;;;;;;5090819;28;20575;-45
2021/09/04 08:41:51;;;;;;;12.00;9.40;;;;;;;;;;5098008;28;20220;-45
2021/09/04 08:44:17;;;;;;;12.00;8.85;;;;;;;;;;5095903;28;20227;-45
2021/09/04 08:46:43;;;;;;;12.20;9.10;;;;;;;;;;5105793;28;20180;-46
2021/09/04 08:49:09;;;;;;;10.25;7.75;;;;;;;;;;5088080;28;20189;-46
2021/09/04 08:51:36;;;;;;;14.50;7.68;;;;;;;;;;5097918;28;20320;-46
2021/09/04 08:54:02;;;;;;;11.38;7.70;;;;;;;;;;5096737;28;20178;-46
2021/09/04 08:56:29;;;;;;;15.98;7.43;;;;;;;;;;5095330;28;20334;-46
2021/09/04 08:58:54;;;;;;;14.00;7.93;;;;;;;;;;5091343;28;20178;-46
2021/09/04 09:01:28;;;;;;;14.63;8.35;;;;;;;;;;5092252;28;20193;-46
2021/09/04 09:03:55;;;;;;;15.40;8.18;;;;;;;;;;5096262;28;20452;-45
2021/09/04 09:06:25;;;;;;;12.52;8.35;;;;;;;;;;5096469;28;20186;-45
2021/09/04 09:08:51;;;;;;;11.43;8.80;;;;;;;;;;5093213;28;20178;-47
2021/09/04 09:11:17;;;;;;;19.42;9.60;;;;;;;;;;5096357;28;20198;-45
2021/09/04 09:13:50;;;;;;;21.67;9.55;;;;;;;;;;5093284;28;20572;-46
2021/09/04 09:16:17;;;;;;;13.13;9.57;;;;;;;;;;5091140;28;20200;-46
2021/09/04 09:18:55;;;;;;;12.27;8.68;;;;;;;;;;5088334;28;20261;-45
2021/09/04 09:21:21;;;;;;;11.35;8.40;;;;;;;;;;5082144;28;20213;-45
2021/09/04 09:24:05;;;;;;;17.05;9.73;;;;;;;;;;5095571;28;20177;-45
2021/09/04 09:26:31;;;;;;;13.68;8.55;;;;;;;;;;5095912;28;20174;-45
2021/09/04 09:29:13;;;;;;;17.55;10.00;;;;;;;;;;5093955;28;20190;-45
2021/09/04 09:37:50;;;;;;;19.55;12.55;;;;;;;;;;5099046;28;20176;-45
2021/09/04 09:40:26;;;;;;;16.20;11.45;;;;;;;;;;5098803;28;20207;-45
2021/09/04 09:42:52;;;;;;;19.45;12.95;;;;;;;;;;5098921;28;20173;-46
2021/09/04 09:48:22;;;;;;;21.35;14.60;;;;;;;;;;5098518;28;20559;-46
2021/09/04 09:50:49;;;;;;;20.02;14.07;;;;;;;;;;5098585;28;20548;-46
2021/09/04 09:53:15;;;;;;;22.80;15.75;;;;;;;;;;5098705;28;20165;-46
2021/09/04 09:55:44;;;;;;;27.75;17.52;;;;;;;;;;5098655;28;20211;-46
2021/09/04 09:58:10;;;;;;;27.00;18.45;;;;;;;;;;5098447;28;20158;-46
2021/09/04 10:00:36;;;;;;;22.88;15.73;;;;;;;;;;5098567;28;20161;-46
2021/09/04 10:03:05;;;;;;;29.98;18.98;;;;;;;;;;5098519;28;20181;-46
2021/09/04 10:08:35;;;;;;;29.15;19.95;;;;;;;;;;5098410;28;20237;-46
2021/09/04 10:11:05;;;;;;;60.47;31.35;;;;;;;;;;5098175;28;20198;-46
2021/09/04 10:13:31;;;;;;;97.55;46.90;;;;;;;;;;5098326;28;20474;-46
2021/09/04 10:15:58;;;;;;;272.52;112.65;;;;;;;;;;5098201;28;20210;-46
2021/09/04 10:18:25;;;;;;;259.50;103.35;;;;;;;;;;5096112;28;20561;-46
2021/09/04 10:21:22;;;;;;;253.63;96.10;;;;;;;;;;5076197;28;20445;-45
2021/09/04 10:23:52;;;;;;;235.15;85.25;;;;;;;;;;5063022;28;20434;-45
2021/09/04 10:26:29;;;;;;;205.63;79.97;;;;;;;;;;5095057;28;20178;-45
2021/09/04 10:28:57;;;;;;;190.80;68.10;;;;;;;;;;5094125;28;20177;-46
2021/09/04 10:31:42;;;;;;;176.07;63.75;;;;;;;;;;5084456;28;20225;-45
2021/09/04 10:34:24;;;;;;;140.68;53.88;;;;;;;;;;5075373;28;20213;-45
2021/09/04 10:37:03;;;;;;;115.18;46.20;;;;;;;;;;5075038;28;20257;-45
2021/09/04 10:39:46;;;;;;;92.60;41.78;;;;;;;;;;5096198;28;20178;-45
2021/09/04 10:42:14;;;;;;;76.40;36.33;;;;;;;;;;5093870;28;20201;-45
2021/09/04 10:44:41;;;;;;;69.28;33.53;;;;;;;;;;5095204;28;20182;-45
2021/09/04 10:47:10;;;;;;;59.10;30.98;;;;;;;;;;5094435;28;20228;-45
2021/09/04 10:49:40;;;;;;;49.30;28.33;;;;;;;;;;5086764;28;20174;-45
2021/09/04 10:52:06;;;;;;;56.30;27.85;;;;;;;;;;5086404;28;20198;-45
2021/09/04 10:54:39;;;;;;;38.08;24.55;;;;;;;;;;5095198;28;20211;-45
2021/09/04 10:57:18;;;;;;;39.50;25.70;;;;;;;;;;5094314;28;20170;-45
2021/09/04 11:00:01;;;;;;;34.83;23.98;;;;;;;;;;5084140;28;20178;-45
2021/09/04 11:02:59;;;;;;;34.55;23.50;;;;;;;;;;5095080;28;20245;-45
2021/09/04 11:05:26;;;;;;;42.50;22.92;;;;;;;;;;5059818;28;20193;-45
2021/09/04 11:08:02;;;;;;;34.53;22.20;;;;;;;;;;5093407;28;20445;-45
2021/09/04 11:10:28;;;;;;;31.33;20.70;;;;;;;;;;5076496;28;20189;-45
2021/09/04 11:13:13;;;;;;;45.75;27.60;;;;;;;;;;5074616;28;20229;-45
2021/09/04 11:15:40;;;;;;;46.75;29.73;;;;;;;;;;5087097;28;20177;-45
2021/09/04 11:18:06;;;;;;;51.17;33.72;;;;;;;;;;5094313;28;20180;-45
2021/09/04 11:20:32;;;;;;;54.88;32.50;;;;;;;;;;5087957;28;20223;-45
2021/09/04 11:22:58;;;;;;;53.13;30.27;;;;;;;;;;5094796;28;20174;-45
2021/09/04 11:25:24;;;;;;;46.45;27.90;;;;;;;;;;5094559;28;20297;-45
2021/09/04 11:27:50;;;;;;;39.28;25.33;;;;;;;;;;5094085;28;20181;-45
2021/09/04 11:30:17;;;;;;;38.55;23.92;;;;;;;;;;5092860;28;20182;-45
2021/09/04 11:32:43;;;;;;;34.13;21.98;;;;;;;;;;5094046;28;20245;-45
2021/09/04 11:35:10;;;;;;;31.40;20.83;;;;;;;;;;5094241;28;20177;-45
2021/09/04 11:37:37;;;;;;;30.33;19.73;;;;;;;;;;5093970;28;20177;-45
2021/09/04 11:40:10;;;;;;;30.42;19.30;;;;;;;;;;5100475;28;20174;-45
2021/09/04 11:42:39;;;;;;;26.33;17.98;;;;;;;;;;5078519;28;20197;-45
2021/09/04 11:45:07;;;;;;;29.60;18.02;;;;;;;;;;5094399;28;20185;-45
2021/09/04 11:47:34;;;;;;;27.90;17.00;;;;;;;;;;5093074;28;20188;-45
2021/09/04 11:50:01;;;;;;;26.50;16.45;;;;;;;;;;5091561;28;20185;-45
2021/09/04 11:52:28;;;;;;;21.30;15.75;;;;;;;;;;5094507;28;20233;-45
2021/09/04 11:55:06;;;;;;;20.83;15.10;;;;;;;;;;5094425;28;20203;-45
2021/09/04 11:57:33;;;;;;;22.25;16.27;;;;;;;;;;5073842;28;20279;-45
2021/09/04 12:00:02;;;;;;;19.80;14.40;;;;;;;;;;5074168;28;20182;-45
2021/09/04 12:02:28;;;;;;;17.92;14.63;;;;;;;;;;5074316;28;20179;-45
2021/09/04 12:04:55;;;;;;;22.67;15.25;;;;;;;;;;5089434;28;20545;-45
2021/09/04 12:07:24;;;;;;;18.98;14.82;;;;;;;;;;5092404;28;20579;-44
2021/09/04 12:09:51;;;;;;;18.70;14.75;;;;;;;;;;5075627;28;20167;-45
2021/09/04 12:12:17;;;;;;;17.77;14.10;;;;;;;;;;5077864;28;20491;-45
2021/09/04 12:14:43;;;;;;;17.73;13.77;;;;;;;;;;5092231;28;20253;-45
2021/09/04 12:17:09;;;;;;;16.60;13.43;;;;;;;;;;5097499;28;20178;-45
2021/09/04 12:19:39;;;;;;;18.33;13.10;;;;;;;;;;5092104;28;20171;-45
2021/09/04 12:22:05;;;;;;;16.83;13.07;;;;;;;;;;5093910;28;20235;-45
2021/09/04 12:24:31;;;;;;;15.95;12.77;;;;;;;;;;5097810;28;20204;-45
2021/09/04 12:26:57;;;;;;;15.85;12.52;;;;;;;;;;5081360;28;20184;-45
2021/09/04 12:29:28;;;;;;;16.02;11.43;;;;;;;;;;5080664;28;20227;-45
2021/09/04 12:32:04;;;;;;;15.43;11.57;;;;;;;;;;5083937;28;20601;-45
2021/09/04 12:34:30;;;;;;;15.25;11.20;;;;;;;;;;5077654;28;20178;-45
2021/09/04 12:36:56;;;;;;;16.98;11.05;;;;;;;;;;5092242;28;20186;-45
2021/09/04 12:39:27;;;;;;;12.65;10.18;;;;;;;;;;5098871;28;20193;-45
2021/09/04 12:42:08;;;;;;;15.75;11.02;;;;;;;;;;5101700;28;20232;-45
2021/09/04 12:44:38;;;;;;;15.05;10.98;;;;;;;;;;5086373;28;20205;-45
2021/09/04 12:47:05;;;;;;;15.55;10.93;;;;;;;;;;5092872;28;20242;-45
2021/09/04 12:49:32;;;;;;;15.10;10.55;;;;;;;;;;5092664;28;20179;-45
2021/09/04 12:51:58;;;;;;;13.15;10.02;;;;;;;;;;5088799;28;20202;-45
2021/09/04 12:54:28;;;;;;;14.85;11.13;;;;;;;;;;5097521;28;20248;-45
2021/09/04 12:57:03;;;;;;;13.00;10.32;;;;;;;;;;5096530;28;20178;-45
2021/09/04 12:59:29;;;;;;;13.48;11.10;;;;;;;;;;5091804;28;20170;-45
2021/09/04 13:01:55;;;;;;;17.20;11.93;;;;;;;;;;5090768;28;20235;-45
2021/09/04 13:04:20;;;;;;;13.85;10.32;;;;;;;;;;5092671;28;20182;-46
2021/09/04 13:06:46;;;;;;;18.95;11.07;;;;;;;;;;5092432;28;20286;-45
2021/09/04 13:09:12;;;;;;;18.27;11.75;;;;;;;;;;5095821;28;20177;-45
2021/09/04 13:11:38;;;;;;;15.73;11.07;;;;;;;;;;5096928;28;20263;-45
2021/09/04 13:14:04;;;;;;;13.55;11.32;;;;;;;;;;5096038;28;20288;-45
2021/09/04 13:16:30;;;;;;;15.63;11.13;;;;;;;;;;5096974;28;20177;-45
2021/09/04 13:18:56;;;;;;;17.70;11.40;;;;;;;;;;5096131;28;20166;-45
2021/09/04 13:21:23;;;;;;;15.35;11.45;;;;;;;;;;5085134;28;20206;-45
2021/09/04 13:23:49;;;;;;;14.85;10.77;;;;;;;;;;5076663;28;20554;-45
2021/09/04 13:26:15;;;;;;;14.75;11.35;;;;;;;;;;5076945;28;20214;-45
2021/09/04 13:28:41;;;;;;;12.80;10.50;;;;;;;;;;5095579;28;20698;-45
2021/09/04 13:31:07;;;;;;;16.23;11.20;;;;;;;;;;5096837;28;20260;-45
2021/09/04 13:33:33;;;;;;;17.75;11.10;;;;;;;;;;5096719;28;20174;-45
2021/09/04 13:35:59;;;;;;;12.93;10.32;;;;;;;;;;5096098;28;20227;-45
2021/09/04 13:38:25;;;;;;;12.65;10.27;;;;;;;;;;5096266;28;20190;-45
2021/09/04 13:40:51;;;;;;;12.63;10.45;;;;;;;;;;5098482;28;20287;-45
2021/09/04 13:43:17;;;;;;;11.38;10.15;;;;;;;;;;5076394;28;20588;-45
2021/09/04 13:45:43;;;;;;;13.57;10.88;;;;;;;;;;5076357;28;20253;-45
2021/09/04 13:48:09;;;;;;;12.93;11.30;;;;;;;;;;5077178;28;20170;-45
2021/09/04 13:50:35;;;;;;;14.90;10.75;;;;;;;;;;5095994;28;20185;-45
2021/09/04 13:53:01;;;;;;;13.07;10.90;;;;;;;;;;5093695;28;20229;-45
2021/09/04 13:55:27;;;;;;;13.18;10.70;;;;;;;;;;5076094;28;20170;-45
2021/09/04 13:57:53;;;;;;;12.00;10.55;;;;;;;;;;5075528;28;20165;-45
2021/09/04 14:00:19;;;;;;;12.45;10.25;;;;;;;;;;5095141;28;20236;-45
2021/09/04 14:02:45;;;;;;;13.65;10.65;;;;;;;;;;5095957;28;20166;-45
2021/09/04 14:05:11;;;;;;;11.00;9.77;;;;;;;;;;5095744;28;20332;-45
2021/09/04 14:07:37;;;;;;;11.98;9.50;;;;;;;;;;5095455;28;20173;-45
2021/09/04 14:10:03;;;;;;;13.65;10.35;;;;;;;;;;5078328;28;20480;-45
2021/09/04 14:12:29;;;;;;;11.48;9.65;;;;;;;;;;5095821;28;20632;-45
2021/09/04 14:14:55;;;;;;;12.10;9.73;;;;;;;;;;5079471;28;20178;-45
2021/09/04 14:17:21;;;;;;;11.40;10.20;;;;;;;;;;5093887;28;20178;-45
2021/09/04 14:19:47;;;;;;;11.38;9.25;;;;;;;;;;5095557;28;20226;-45
2021/09/04 14:22:13;;;;;;;12.13;10.13;;;;;;;;;;5096000;28;20252;-45
2021/09/04 14:24:39;;;;;;;10.68;9.55;;;;;;;;;;5095576;28;20169;-45
2021/09/04 14:27:05;;;;;;;12.02;10.05;;;;;;;;;;5094568;28;20239;-45
2021/09/04 14:29:31;;;;;;;13.75;9.20;;;;;;;;;;5083216;28;20206;-45
2021/09/04 14:31:57;;;;;;;11.32;9.48;;;;;;;;;;5089830;28;20212;-45
2021/09/04 14:34:23;;;;;;;11.00;9.57;;;;;;;;;;5095253;28;20170;-45
2021/09/04 14:36:49;;;;;;;10.75;8.80;;;;;;;;;;5095015;28;20182;-45
2021/09/04 14:39:15;;;;;;;12.70;9.57;;;;;;;;;;5089216;28;20201;-45
2021/09/04 14:41:41;;;;;;;11.60;9.75;;;;;;;;;;5095925;28;20197;-46